Buoy 51532

sailwx.info

Track history (hours):
 
Tides and Currents Weather Stations Pressure Air Temp Water Temp Dewpoint Dewpoint Depression Visibility Wind Speed Wind Dir Waves Ship Positions

Drifting buoy 51532

Last reported at 2015-May-22 09:36 UTC. Time now 2015-May-22 11:33 UTC.
Position N 36°10' W 132°57'.

Water temperature 16.6 ° C

Date/timePositionNaut miles runAvg speedWind from/ knotsBaromVisibWave heightAir tempDewpointWater temp
2015-May-22 09:36N 36°10' W 132°57'1 0.5 16.6
2015-May-22 07:59N 36°11' W 132°58'1 0.2 16.7
2015-May-22 04:53N 36°11' W 132°58'1 4.5 16.8
2015-May-22 04:42N 36°10' W 132°59'0 0.1 16.8
2015-May-22 03:02N 36°10' W 132°58'1 0.3 17.0
2015-May-22 00:02N 36°09' W 132°59'1 0.6 17.4
2015-May-21 23:01N 36°09' W 132°58'1 0.2 17.2
2015-May-21 20:42N 36°09' W 132°58'2 0.9 17.1
2015-May-21 18:05N 36°11' W 132°57'0 0.0
2015-May-21 15:58N 36°11' W 132°57'1 0.5 16.5
2015-May-21 14:14N 36°10' W 132°58'0 0.0 16.5
2015-May-21 14:10N 36°10' W 132°58'0 0.0 16.5
2015-May-21 14:01N 36°10' W 132°58'0 0.2 16.5
2015-May-21 13:10N 36°10' W 132°58'0 0.0 16.5
2015-May-21 13:04N 36°10' W 132°58'1 0.2 16.5
2015-May-21 06:42N 36°10' W 132°60'0 0.3 16.8
2015-May-21 05:59N 36°10' W 132°59'1 0.3 16.8
2015-May-21 03:48N 36°10' W 132°59'1 0.5 16.8
2015-May-21 02:05N 36°10' W 132°60'0 2.3 16.8
2015-May-21 01:56N 36°10' W 132°59'0 0.1 16.8
2015-May-21 00:09N 36°10' W 132°59'0 0.0 17.2
2015-May-21 00:03N 36°10' W 132°59'0 0.0 17.2
2015-May-20 23:11N 36°10' W 132°59'0 1.4 17.1
2015-May-20 23:06N 36°10' W 132°59'1 0.2 17.1
2015-May-20 16:10N 36°11' W 132°59'217.1 16.3
2015-May-20 16:03N 36°11' W 133°02'1 0.6 16.3
2015-May-20 14:19N 36°11' W 133°01'0 0.0 16.3
2015-May-20 13:54N 36°11' W 133°01'0 0.7 16.3
2015-May-20 13:19N 36°11' W 133°01'0 0.1 16.3
2015-May-20 10:00N 36°11' W 133°01'1 0.3 16.4
2015-May-20 07:51N 36°10' W 133°01'0 0.5 16.4
2015-May-20 06:56N 36°10' W 133°00'0 0.0 16.4
2015-May-20 04:17N 36°10' W 133°00'0 0.6 16.5
2015-May-20 03:49N 36°10' W 133°01'0 0.0 16.5
2015-May-20 03:41N 36°10' W 133°01'1 0.5 16.5
2015-May-20 02:14N 36°11' W 132°60'0 0.0 16.5
2015-May-20 02:06N 36°11' W 132°60'0 1.9 16.5
2015-May-20 02:00N 36°11' W 132°60'1 0.1 16.5
2015-May-19 20:34N 36°11' W 133°01'1 0.4
2015-May-19 18:58N 36°12' W 133°01'0 0.0 16.4
2015-May-19 18:04N 36°12' W 133°01'1 0.3 16.3
2015-May-19 16:17N 36°11' W 133°01'0 0.0 16.2
2015-May-19 14:55N 36°11' W 133°01'2 1.1 16.2
2015-May-19 13:10N 36°12' W 133°03'0 0.0 16.2
2015-May-19 12:57N 36°12' W 133°03'2 2.0 16.2
2015-May-19 11:53N 36°11' W 133°01'022.6 16.2
2015-May-19 11:52N 36°12' W 133°01'0 0.1 16.2
2015-May-19 10:12N 36°11' W 133°01'0 0.0 16.2
2015-May-19 06:38N 36°12' W 133°01'0 4.4 16.3
2015-May-19 06:34N 36°12' W 133°01'0 0.1 16.3
2015-May-19 04:58N 36°11' W 133°01'0 0.0 16.4
2015-May-19 04:46N 36°11' W 133°01'1 1.1 16.4
2015-May-19 04:04N 36°12' W 133°01'0 0.5 16.4
2015-May-19 03:10N 36°12' W 133°01'0 0.3 16.4
2015-May-19 02:18N 36°12' W 133°01'0 0.0 16.4
2015-May-19 02:15N 36°12' W 133°01'0 0.2 16.4
2015-May-19 01:26N 36°12' W 133°01'0 0.3 16.5
2015-May-19 01:00N 36°12' W 133°01'0 1.3 16.5
2015-May-19 00:38N 36°12' W 133°01'0 4.5 16.4
2015-May-19 00:32N 36°12' W 133°01'0 0.5 16.5
2015-May-18 23:34N 36°12' W 133°01'0 0.2 16.4
2015-May-18 21:54N 36°12' W 133°01'1 0.3 16.3
2015-May-18 20:09N 36°13' W 133°02'0 4.5 16.2
2015-May-18 20:03N 36°13' W 133°01'0 3.8 16.3
2015-May-18 19:58N 36°13' W 133°01'0 0.0 16.2
2015-May-18 19:20N 36°13' W 133°01'0 1.2 16.2
2015-May-18 19:13N 36°13' W 133°02'0 0.4 16.2
2015-May-18 18:26N 36°13' W 133°02'0 0.6 16.2
2015-May-18 17:34N 36°13' W 133°02'1 0.8 16.2
2015-May-18 16:55N 36°13' W 133°02'0 1.5 16.2
2015-May-18 16:40N 36°12' W 133°02'0 0.0 16.2
2015-May-18 16:29N 36°12' W 133°02'0 0.0 16.2
2015-May-18 15:15N 36°12' W 133°02'0 1.2 16.2
2015-May-18 14:53N 36°12' W 133°03'0 2.3 16.2
2015-May-18 14:47N 36°12' W 133°03'114.9 16.2
2015-May-18 14:42N 36°12' W 133°01'1 0.6 16.2
2015-May-18 13:44N 36°12' W 133°02'118.2 16.2
2015-May-18 13:42N 36°12' W 133°01'1 1.1 16.2
2015-May-18 13:10N 36°12' W 133°02'0 2.0 16.2
2015-May-18 13:04N 36°12' W 133°02'0 0.2 16.2
2015-May-18 12:04N 36°12' W 133°02'0 3.4 16.2
2015-May-18 11:58N 36°11' W 133°01'0 0.0 16.2
2015-May-18 10:25N 36°11' W 133°01'0 0.0
2015-May-18 10:23N 36°11' W 133°01'1 8.7 16.2
2015-May-18 10:17N 36°12' W 133°00'0 0.0 16.2
2015-May-18 07:46N 36°12' W 133°00'1 1.3 16.3
2015-May-18 07:00N 36°12' W 132°59'0 0.0 16.3
2015-May-18 06:04N 36°12' W 132°59'0 0.0 16.3
2015-May-18 05:58N 36°12' W 132°59'1 1.0 16.3
2015-May-18 05:20N 36°13' W 132°59'0 0.0 16.3
2015-May-18 04:23N 36°13' W 132°59'1 0.3 16.3
2015-May-18 02:26N 36°13' W 132°59'1 0.8 16.4
2015-May-18 01:23N 36°13' W 133°00'1 9.7 16.4
2015-May-18 01:19N 36°14' W 133°00'1 1.8 16.4
2015-May-18 00:49N 36°13' W 133°01'0 0.0 16.4
2015-May-17 23:42N 36°13' W 133°01'1 0.4 16.4
2015-May-17 22:02N 36°13' W 133°01'0 0.3 16.4
2015-May-17 20:21N 36°13' W 133°02'1 1.1 16.4
2015-May-17 19:31N 36°12' W 133°01'0 0.0 16.2
2015-May-17 18:45N 36°12' W 133°01'0 0.1 16.2
2015-May-17 17:56N 36°12' W 133°01'1 1.1 16.2
2015-May-17 17:03N 36°12' W 133°00'0 0.2 16.1
2015-May-17 15:00N 36°12' W 132°60'0 8.4 16.1
2015-May-17 14:57N 36°12' W 132°60'0 0.3 16.1
2015-May-17 13:45N 36°12' W 133°00'0 0.7 16.1
2015-May-17 13:19N 36°12' W 132°60'1 1.1 16.1
2015-May-17 12:13N 36°14' W 132°60'0 0.0 16.2
2015-May-17 12:10N 36°14' W 132°60'2 0.3 16.2
2015-May-17 04:44N 36°15' W 133°02'2 0.4 16.5
2015-May-17 00:59N 36°14' W 133°03'1 5.9 16.5
2015-May-17 00:53N 36°15' W 133°04'1 0.9 16.5
2015-May-17 00:10N 36°14' W 133°03'0 1.3 16.5
2015-May-16 23:56N 36°14' W 133°03'0 0.0 16.5
2015-May-16 23:51N 36°14' W 133°03'0 0.8 16.5
2015-May-16 23:16N 36°14' W 133°04'1 0.3 16.5
2015-May-16 19:53N 36°14' W 133°02'1 0.2 16.5
2015-May-16 16:10N 36°13' W 133°03'211.8 16.2
2015-May-16 16:00N 36°15' W 133°02'0 0.0 16.2
2015-May-16 15:11N 36°15' W 133°02'3 0.4 16.2
2015-May-16 07:37N 36°17' W 133°06'0 0.4 16.9
2015-May-16 06:48N 36°16' W 133°06'1 0.7 16.9
2015-May-16 05:56N 36°16' W 133°07'0 0.1 17.0
2015-May-16 04:59N 36°16' W 133°07'0 0.0 17.2
2015-May-16 04:43N 36°16' W 133°07'0 0.3 17.1
2015-May-16 02:53N 36°16' W 133°06'1 1.8 17.4
2015-May-16 02:11N 36°16' W 133°07'0 0.0 17.7
2015-May-16 01:20N 36°16' W 133°07'1 1.2 17.7
2015-May-16 00:02N 36°16' W 133°06'2 0.2 17.5
2015-May-15 16:28N 36°16' W 133°07'2 1.3 15.9
2015-May-15 14:57N 36°18' W 133°07'0 0.1 15.9
2015-May-15 13:11N 36°18' W 133°07'1 0.6 15.9
2015-May-15 10:57N 36°19' W 133°08'1 0.3 15.9
2015-May-15 06:23N 36°18' W 133°10'0 0.0 15.9
2015-May-15 05:28N 36°18' W 133°10'216.0 15.9
2015-May-15 05:19N 36°17' W 133°07'1 1.7 15.9
2015-May-15 04:42N 36°18' W 133°08'0 0.0 15.9
2015-May-15 03:46N 36°18' W 133°08'1 0.9 15.9
2015-May-15 02:57N 36°18' W 133°08'1 0.4 15.9
2015-May-15 01:00N 36°19' W 133°07'2 0.4 15.9
2015-May-14 20:56N 36°20' W 133°07'1 0.6 15.9
2015-May-14 19:01N 36°21' W 133°08'0 1.4 15.9
2015-May-14 18:53N 36°21' W 133°08'0 0.0 15.9
2015-May-14 18:09N 36°21' W 133°08'1 0.3 15.9
2015-May-14 15:13N 36°22' W 133°08'0 0.1 15.6
2015-May-14 13:55N 36°22' W 133°08'0 3.9 15.7
2015-May-14 13:49N 36°22' W 133°08'0 3.4
2015-May-14 13:47N 36°22' W 133°08'0 0.0 15.8
2015-May-14 13:36N 36°22' W 133°08'0 0.4 15.7
2015-May-14 12:53N 36°22' W 133°09'0 1.7 15.8
2015-May-14 12:44N 36°22' W 133°08'1 1.5 15.8
2015-May-14 12:12N 36°22' W 133°07'0 0.2 15.9
2015-May-14 11:09N 36°22' W 133°07'2 1.2 15.9
2015-May-14 09:25N 36°23' W 133°10'0 0.0 15.9
2015-May-14 07:28N 36°23' W 133°10'2 0.9 15.9
2015-May-14 05:45N 36°23' W 133°11'1 1.7 15.9
2015-May-14 05:02N 36°23' W 133°10'0 0.4 15.9
2015-May-14 04:08N 36°24' W 133°10'0 0.5 15.9
2015-May-14 03:12N 36°24' W 133°10'0 0.6 15.9
2015-May-14 02:57N 36°24' W 133°10'0 0.3 15.9
2015-May-14 02:23N 36°24' W 133°10'0 0.2 15.9
2015-May-14 01:32N 36°24' W 133°10'1 6.2 15.9
2015-May-14 01:25N 36°25' W 133°10'0 0.2 15.9
2015-May-14 00:26N 36°25' W 133°10'1 1.2 15.9
2015-May-13 23:54N 36°25' W 133°09'0 0.0 15.9
2015-May-13 23:40N 36°25' W 133°09'1 0.8
2015-May-13 22:46N 36°25' W 133°10'0 0.3 15.9
2015-May-13 21:07N 36°24' W 133°10'1 8.4 15.9
2015-May-13 20:57N 36°26' W 133°10'0 0.0 15.9
2015-May-13 19:24N 36°26' W 133°10'0 0.0 15.9
2015-May-13 19:21N 36°26' W 133°10'1 0.8 15.9
2015-May-13 18:27N 36°26' W 133°11'0 0.2 15.8
2015-May-13 15:47N 36°27' W 133°11'0 0.0 15.8
2015-May-13 15:46N 36°27' W 133°11'0 0.0 15.8
2015-May-13 15:41N 36°27' W 133°11'0 0.3 15.8
2015-May-13 14:12N 36°27' W 133°11'0 0.9 15.9
2015-May-13 14:04N 36°27' W 133°11'014.7
2015-May-13 14:02N 36°27' W 133°11'0 8.6 15.8
2015-May-13 13:59N 36°27' W 133°11'0 0.4 15.8
2015-May-13 12:59N 36°27' W 133°10'1 0.7 15.9
2015-May-13 11:18N 36°29' W 133°11'0 0.0 15.9
2015-May-13 11:16N 36°29' W 133°11'0 0.0 15.9
2015-May-13 07:50N 36°29' W 133°11'1 0.4 15.9
2015-May-13 06:00N 36°29' W 133°11'0 0.0 15.9
2015-May-13 05:22N 36°29' W 133°11'0 0.2 15.9
2015-May-13 02:57N 36°30' W 133°11'1 1.0 15.9
2015-May-13 01:49N 36°30' W 133°10'0 0.0 16.0
2015-May-13 01:43N 36°30' W 133°10'0 4.3 16.0
2015-May-13 01:41N 36°30' W 133°09'0 0.4 16.0
2015-May-13 00:38N 36°31' W 133°10'0 0.3 16.0
2015-May-13 00:09N 36°30' W 133°10'0 3.2 16.0
2015-May-13 00:03N 36°31' W 133°10'1 0.8 16.0
2015-May-12 22:54N 36°31' W 133°09'1 0.7 16.0
2015-May-12 21:20N 36°32' W 133°11'1 0.3 16.0
2015-May-12 17:09N 36°33' W 133°11'1 1.1 15.9
2015-May-12 16:01N 36°32' W 133°12'1 9.1 15.9
2015-May-12 15:53N 36°33' W 133°11'0 0.2 15.9
2015-May-12 14:15N 36°33' W 133°11'0 0.0 15.9
2015-May-12 14:10N 36°33' W 133°11'1 0.3 15.9
2015-May-12 09:53N 36°34' W 133°11'   15.9
Track history (hours):
 
Tides and Currents Weather Stations Pressure Air Temp Water Temp Dewpoint Dewpoint Depression Visibility Wind Speed Wind Dir Waves Ship Positions

Drifting buoy 51532

Last reported at 2015-May-22 09:36 UTC. Time now 2015-May-22 11:33 UTC.
Position N 36°10' W 132°57'.

Water temperature 16.6 ° C

Date/timePositionNaut miles runAvg speedWind from/ knotsBaromVisibWave heightAir tempDewpointWater temp
2015-May-22 09:36N 36°10' W 132°57'1 0.5 16.6
2015-May-22 07:59N 36°11' W 132°58'1 0.2 16.7
2015-May-22 04:53N 36°11' W 132°58'1 4.5 16.8
2015-May-22 04:42N 36°10' W 132°59'0 0.1 16.8
2015-May-22 03:02N 36°10' W 132°58'1 0.3 17.0
2015-May-22 00:02N 36°09' W 132°59'1 0.6 17.4
2015-May-21 23:01N 36°09' W 132°58'1 0.2 17.2
2015-May-21 20:42N 36°09' W 132°58'2 0.9 17.1
2015-May-21 18:05N 36°11' W 132°57'0 0.0
2015-May-21 15:58N 36°11' W 132°57'1 0.5 16.5
2015-May-21 14:14N 36°10' W 132°58'0 0.0 16.5
2015-May-21 14:10N 36°10' W 132°58'0 0.0 16.5
2015-May-21 14:01N 36°10' W 132°58'0 0.2 16.5
2015-May-21 13:10N 36°10' W 132°58'0 0.0 16.5
2015-May-21 13:04N 36°10' W 132°58'1 0.2 16.5
2015-May-21 06:42N 36°10' W 132°60'0 0.3 16.8
2015-May-21 05:59N 36°10' W 132°59'1 0.3 16.8
2015-May-21 03:48N 36°10' W 132°59'1 0.5 16.8
2015-May-21 02:05N 36°10' W 132°60'0 2.3 16.8
2015-May-21 01:56N 36°10' W 132°59'0 0.1 16.8
2015-May-21 00:09N 36°10' W 132°59'0 0.0 17.2
2015-May-21 00:03N 36°10' W 132°59'0 0.0 17.2
2015-May-20 23:11N 36°10' W 132°59'0 1.4 17.1
2015-May-20 23:06N 36°10' W 132°59'1 0.2 17.1
2015-May-20 16:10N 36°11' W 132°59'217.1 16.3
2015-May-20 16:03N 36°11' W 133°02'1 0.6 16.3
2015-May-20 14:19N 36°11' W 133°01'0 0.0 16.3
2015-May-20 13:54N 36°11' W 133°01'0 0.7 16.3
2015-May-20 13:19N 36°11' W 133°01'0 0.1 16.3
2015-May-20 10:00N 36°11' W 133°01'1 0.3 16.4
2015-May-20 07:51N 36°10' W 133°01'0 0.5 16.4
2015-May-20 06:56N 36°10' W 133°00'0 0.0 16.4
2015-May-20 04:17N 36°10' W 133°00'0 0.6 16.5
2015-May-20 03:49N 36°10' W 133°01'0 0.0 16.5
2015-May-20 03:41N 36°10' W 133°01'1 0.5 16.5
2015-May-20 02:14N 36°11' W 132°60'0 0.0 16.5
2015-May-20 02:06N 36°11' W 132°60'0 1.9 16.5
2015-May-20 02:00N 36°11' W 132°60'1 0.1 16.5
2015-May-19 20:34N 36°11' W 133°01'1 0.4
2015-May-19 18:58N 36°12' W 133°01'0 0.0 16.4
2015-May-19 18:04N 36°12' W 133°01'1 0.3 16.3
2015-May-19 16:17N 36°11' W 133°01'0 0.0 16.2
2015-May-19 14:55N 36°11' W 133°01'2 1.1 16.2
2015-May-19 13:10N 36°12' W 133°03'0 0.0 16.2
2015-May-19 12:57N 36°12' W 133°03'2 2.0 16.2
2015-May-19 11:53N 36°11' W 133°01'022.6 16.2
2015-May-19 11:52N 36°12' W 133°01'0 0.1 16.2
2015-May-19 10:12N 36°11' W 133°01'0 0.0 16.2
2015-May-19 06:38N 36°12' W 133°01'0 4.4 16.3
2015-May-19 06:34N 36°12' W 133°01'0 0.1 16.3
2015-May-19 04:58N 36°11' W 133°01'0 0.0 16.4
2015-May-19 04:46N 36°11' W 133°01'1 1.1 16.4
2015-May-19 04:04N 36°12' W 133°01'0 0.5 16.4
2015-May-19 03:10N 36°12' W 133°01'0 0.3 16.4
2015-May-19 02:18N 36°12' W 133°01'0 0.0 16.4
2015-May-19 02:15N 36°12' W 133°01'0 0.2 16.4
2015-May-19 01:26N 36°12' W 133°01'0 0.3 16.5
2015-May-19 01:00N 36°12' W 133°01'0 1.3 16.5
2015-May-19 00:38N 36°12' W 133°01'0 4.5 16.4
2015-May-19 00:32N 36°12' W 133°01'0 0.5 16.5
2015-May-18 23:34N 36°12' W 133°01'0 0.2 16.4
2015-May-18 21:54N 36°12' W 133°01'1 0.3 16.3
2015-May-18 20:09N 36°13' W 133°02'0 4.5 16.2
2015-May-18 20:03N 36°13' W 133°01'0 3.8 16.3
2015-May-18 19:58N 36°13' W 133°01'0 0.0 16.2
2015-May-18 19:20N 36°13' W 133°01'0 1.2 16.2
2015-May-18 19:13N 36°13' W 133°02'0 0.4 16.2
2015-May-18 18:26N 36°13' W 133°02'0 0.6 16.2
2015-May-18 17:34N 36°13' W 133°02'1 0.8 16.2
2015-May-18 16:55N 36°13' W 133°02'0 1.5 16.2
2015-May-18 16:40N 36°12' W 133°02'0 0.0 16.2
2015-May-18 16:29N 36°12' W 133°02'0 0.0 16.2
2015-May-18 15:15N 36°12' W 133°02'0 1.2 16.2
2015-May-18 14:53N 36°12' W 133°03'0 2.3 16.2
2015-May-18 14:47N 36°12' W 133°03'114.9 16.2
2015-May-18 14:42N 36°12' W 133°01'1 0.6 16.2
2015-May-18 13:44N 36°12' W 133°02'118.2 16.2
2015-May-18 13:42N 36°12' W 133°01'1 1.1 16.2
2015-May-18 13:10N 36°12' W 133°02'0 2.0 16.2
2015-May-18 13:04N 36°12' W 133°02'0 0.2 16.2
2015-May-18 12:04N 36°12' W 133°02'0 3.4 16.2
2015-May-18 11:58N 36°11' W 133°01'0 0.0 16.2
2015-May-18 10:25N 36°11' W 133°01'0 0.0
2015-May-18 10:23N 36°11' W 133°01'1 8.7 16.2
2015-May-18 10:17N 36°12' W 133°00'0 0.0 16.2
2015-May-18 07:46N 36°12' W 133°00'1 1.3 16.3
2015-May-18 07:00N 36°12' W 132°59'0 0.0 16.3
2015-May-18 06:04N 36°12' W 132°59'0 0.0 16.3
2015-May-18 05:58N 36°12' W 132°59'1 1.0 16.3
2015-May-18 05:20N 36°13' W 132°59'0 0.0 16.3
2015-May-18 04:23N 36°13' W 132°59'1 0.3 16.3
2015-May-18 02:26N 36°13' W 132°59'1 0.8 16.4
2015-May-18 01:23N 36°13' W 133°00'1 9.7 16.4
2015-May-18 01:19N 36°14' W 133°00'1 1.8 16.4
2015-May-18 00:49N 36°13' W 133°01'0 0.0 16.4
2015-May-17 23:42N 36°13' W 133°01'1 0.4 16.4
2015-May-17 22:02N 36°13' W 133°01'0 0.3 16.4
2015-May-17 20:21N 36°13' W 133°02'1 1.1 16.4
2015-May-17 19:31N 36°12' W 133°01'0 0.0 16.2
2015-May-17 18:45N 36°12' W 133°01'0 0.1 16.2
2015-May-17 17:56N 36°12' W 133°01'1 1.1 16.2
2015-May-17 17:03N 36°12' W 133°00'0 0.2 16.1
2015-May-17 15:00N 36°12' W 132°60'0 8.4 16.1
2015-May-17 14:57N 36°12' W 132°60'0 0.3 16.1
2015-May-17 13:45N 36°12' W 133°00'0 0.7 16.1
2015-May-17 13:19N 36°12' W 132°60'1 1.1 16.1
2015-May-17 12:13N 36°14' W 132°60'0 0.0 16.2
2015-May-17 12:10N 36°14' W 132°60'2 0.3 16.2
2015-May-17 04:44N 36°15' W 133°02'2 0.4 16.5
2015-May-17 00:59N 36°14' W 133°03'1 5.9 16.5
2015-May-17 00:53N 36°15' W 133°04'1 0.9 16.5
2015-May-17 00:10N 36°14' W 133°03'0 1.3 16.5
2015-May-16 23:56N 36°14' W 133°03'0 0.0 16.5
2015-May-16 23:51N 36°14' W 133°03'0 0.8 16.5
2015-May-16 23:16N 36°14' W 133°04'1 0.3 16.5
2015-May-16 19:53N 36°14' W 133°02'1 0.2 16.5
2015-May-16 16:10N 36°13' W 133°03'211.8 16.2
2015-May-16 16:00N 36°15' W 133°02'0 0.0 16.2
2015-May-16 15:11N 36°15' W 133°02'3 0.4 16.2
2015-May-16 07:37N 36°17' W 133°06'0 0.4 16.9
2015-May-16 06:48N 36°16' W 133°06'1 0.7 16.9
2015-May-16 05:56N 36°16' W 133°07'0 0.1 17.0
2015-May-16 04:59N 36°16' W 133°07'0 0.0 17.2
2015-May-16 04:43N 36°16' W 133°07'0 0.3 17.1
2015-May-16 02:53N 36°16' W 133°06'1 1.8 17.4
2015-May-16 02:11N 36°16' W 133°07'0 0.0 17.7
2015-May-16 01:20N 36°16' W 133°07'1 1.2 17.7
2015-May-16 00:02N 36°16' W 133°06'2 0.2 17.5
2015-May-15 16:28N 36°16' W 133°07'2 1.3 15.9
2015-May-15 14:57N 36°18' W 133°07'0 0.1 15.9
2015-May-15 13:11N 36°18' W 133°07'1 0.6 15.9
2015-May-15 10:57N 36°19' W 133°08'1 0.3 15.9
2015-May-15 06:23N 36°18' W 133°10'0 0.0 15.9
2015-May-15 05:28N 36°18' W 133°10'216.0 15.9
2015-May-15 05:19N 36°17' W 133°07'1 1.7 15.9
2015-May-15 04:42N 36°18' W 133°08'0 0.0 15.9
2015-May-15 03:46N 36°18' W 133°08'1 0.9 15.9
2015-May-15 02:57N 36°18' W 133°08'1 0.4 15.9
2015-May-15 01:00N 36°19' W 133°07'2 0.4 15.9
2015-May-14 20:56N 36°20' W 133°07'1 0.6 15.9
2015-May-14 19:01N 36°21' W 133°08'0 1.4 15.9
2015-May-14 18:53N 36°21' W 133°08'0 0.0 15.9
2015-May-14 18:09N 36°21' W 133°08'1 0.3 15.9
2015-May-14 15:13N 36°22' W 133°08'0 0.1 15.6
2015-May-14 13:55N 36°22' W 133°08'0 3.9 15.7
2015-May-14 13:49N 36°22' W 133°08'0 3.4
2015-May-14 13:47N 36°22' W 133°08'0 0.0 15.8
2015-May-14 13:36N 36°22' W 133°08'0 0.4 15.7
2015-May-14 12:53N 36°22' W 133°09'0 1.7 15.8
2015-May-14 12:44N 36°22' W 133°08'1 1.5 15.8
2015-May-14 12:12N 36°22' W 133°07'0 0.2 15.9
2015-May-14 11:09N 36°22' W 133°07'2 1.2 15.9
2015-May-14 09:25N 36°23' W 133°10'0 0.0 15.9
2015-May-14 07:28N 36°23' W 133°10'2 0.9 15.9
2015-May-14 05:45N 36°23' W 133°11'1 1.7 15.9
2015-May-14 05:02N 36°23' W 133°10'0 0.4 15.9
2015-May-14 04:08N 36°24' W 133°10'0 0.5 15.9
2015-May-14 03:12N 36°24' W 133°10'0 0.6 15.9
2015-May-14 02:57N 36°24' W 133°10'0 0.3 15.9
2015-May-14 02:23N 36°24' W 133°10'0 0.2 15.9
2015-May-14 01:32N 36°24' W 133°10'1 6.2 15.9
2015-May-14 01:25N 36°25' W 133°10'0 0.2 15.9
2015-May-14 00:26N 36°25' W 133°10'1 1.2 15.9
2015-May-13 23:54N 36°25' W 133°09'0 0.0 15.9
2015-May-13 23:40N 36°25' W 133°09'1 0.8
2015-May-13 22:46N 36°25' W 133°10'0 0.3 15.9
2015-May-13 21:07N 36°24' W 133°10'1 8.4 15.9
2015-May-13 20:57N 36°26' W 133°10'0 0.0 15.9
2015-May-13 19:24N 36°26' W 133°10'0 0.0 15.9
2015-May-13 19:21N 36°26' W 133°10'1 0.8 15.9
2015-May-13 18:27N 36°26' W 133°11'0 0.2 15.8
2015-May-13 15:47N 36°27' W 133°11'0 0.0 15.8
2015-May-13 15:46N 36°27' W 133°11'0 0.0 15.8
2015-May-13 15:41N 36°27' W 133°11'0 0.3 15.8
2015-May-13 14:12N 36°27' W 133°11'0 0.9 15.9
2015-May-13 14:04N 36°27' W 133°11'014.7
2015-May-13 14:02N 36°27' W 133°11'0 8.6 15.8
2015-May-13 13:59N 36°27' W 133°11'0 0.4 15.8
2015-May-13 12:59N 36°27' W 133°10'1 0.7 15.9
2015-May-13 11:18N 36°29' W 133°11'0 0.0 15.9
2015-May-13 11:16N 36°29' W 133°11'0 0.0 15.9
2015-May-13 07:50N 36°29' W 133°11'1 0.4 15.9
2015-May-13 06:00N 36°29' W 133°11'0 0.0 15.9
2015-May-13 05:22N 36°29' W 133°11'0 0.2 15.9
2015-May-13 02:57N 36°30' W 133°11'1 1.0 15.9
2015-May-13 01:49N 36°30' W 133°10'0 0.0 16.0
2015-May-13 01:43N 36°30' W 133°10'0 4.3 16.0
2015-May-13 01:41N 36°30' W 133°09'0 0.4 16.0
2015-May-13 00:38N 36°31' W 133°10'0 0.3 16.0
2015-May-13 00:09N 36°30' W 133°10'0 3.2 16.0
2015-May-13 00:03N 36°31' W 133°10'1 0.8 16.0
2015-May-12 22:54N 36°31' W 133°09'1 0.7 16.0
2015-May-12 21:20N 36°32' W 133°11'1 0.3 16.0
2015-May-12 17:09N 36°33' W 133°11'1 1.1 15.9
2015-May-12 16:01N 36°32' W 133°12'1 9.1 15.9
2015-May-12 15:53N 36°33' W 133°11'0 0.2 15.9
2015-May-12 14:15N 36°33' W 133°11'0 0.0 15.9
2015-May-12 14:10N 36°33' W 133°11'1 0.3 15.9
2015-May-12 09:53N 36°34' W 133°11'   15.9

Dump ship's entire track history